Time;durP1;ratioP1;P1;durP2;ratioP2;P2;SDS_P1;SDS_P2;PMS_P1;PMS_P2;Temp;Humidity;BMP_temperature;BMP_pressure;BME280_temperature;BME280_humidity;BME280_pressure;Samples;Min_cycle;Max_cycle;Signal;HPM_P1;HPM_P2
2023/05/25 00:02:24;;;;;;;8.63;3.20;;;12.70;1.00;;;;;;5004881;28;20198;-74
2023/05/25 00:04:50;;;;;;;8.93;3.20;;;12.70;1.00;;;;;;5007634;28;20480;-75
2023/05/25 00:07:17;;;;;;;7.17;4.40;;;12.70;1.00;;;;;;5007071;28;20426;-74
2023/05/25 00:09:44;;;;;;;7.40;3.40;;;12.70;1.00;;;;;;5006082;28;20711;-74
2023/05/25 00:12:10;;;;;;;13.70;4.30;;;12.70;1.00;;;;;;5007659;28;20556;-74
2023/05/25 00:14:35;;;;;;;7.03;3.40;;;12.80;1.00;;;;;;5007361;28;20918;-75
2023/05/25 00:17:02;;;;;;;6.90;3.20;;;12.90;1.00;;;;;;5007715;28;20672;-74
2023/05/25 00:19:31;;;;;;;7.50;3.43;;;12.90;1.00;;;;;;5005853;28;20210;-74
2023/05/25 00:21:57;;;;;;;11.30;4.10;;;12.80;1.00;;;;;;5006646;28;20444;-74
2023/05/25 00:24:22;;;;;;;8.07;3.77;;;12.60;1.00;;;;;;5007447;28;20827;-74
2023/05/25 00:26:48;;;;;;;7.40;3.53;;;12.50;1.00;;;;;;5007135;28;20237;-74
2023/05/25 00:29:13;;;;;;;12.03;4.07;;;12.50;1.00;;;;;;5007743;28;20300;-74
2023/05/25 00:31:39;;;;;;;9.03;3.43;;;12.60;1.00;;;;;;5006574;28;20273;-74
2023/05/25 00:34:05;;;;;;;6.70;3.60;;;14.40;1.00;;;;;;5006100;28;20277;-74
2023/05/25 00:36:30;;;;;;;9.30;3.53;;;12.30;1.00;;;;;;5006972;28;20362;-74
2023/05/25 00:38:56;;;;;;;8.00;3.37;;;12.20;1.00;;;;;;5005478;28;20210;-74
2023/05/25 00:41:27;;;;;;;11.90;3.60;;;12.10;1.00;;;;;;5006554;28;20274;-74
2023/05/25 00:43:52;;;;;;;8.70;3.53;;;12.30;1.00;;;;;;5005974;28;20195;-74
2023/05/25 00:46:18;;;;;;;5.60;3.30;;;12.20;1.00;;;;;;5005293;28;20473;-74
2023/05/25 00:48:44;;;;;;;9.10;3.70;;;12.20;1.00;;;;;;5005346;28;20210;-75
2023/05/25 00:51:14;;;;;;;11.43;3.60;;;12.20;1.00;;;;;;5006235;28;20491;-74
2023/05/25 00:53:40;;;;;;;6.80;3.60;;;12.30;1.00;;;;;;5005878;28;20193;-75
2023/05/25 00:56:22;;;;;;;7.77;3.27;;;12.30;1.00;;;;;;5004196;28;20434;-74
2023/05/25 00:58:52;;;;;;;12.07;3.57;;;12.40;1.00;;;;;;5007106;28;20459;-74
2023/05/25 01:01:20;;;;;;;12.30;3.50;;;12.50;1.00;;;;;;5003488;28;20520;-75
2023/05/25 01:03:52;;;;;;;9.80;3.37;;;12.50;1.00;;;;;;5005560;28;20880;-75
2023/05/25 01:06:21;;;;;;;11.20;3.83;;;12.50;1.00;;;;;;5006195;28;20904;-75
2023/05/25 01:08:51;;;;;;;6.50;3.33;;;12.40;1.00;;;;;;5006174;28;20808;-74
2023/05/25 01:11:23;;;;;;;10.37;3.87;;;12.50;1.00;;;;;;5007316;28;20429;-74
2023/05/25 01:13:52;;;;;;;9.97;2.83;;;12.50;1.00;;;;;;5006985;28;20800;-74
2023/05/25 01:16:18;;;;;;;5.43;3.30;;;12.50;1.00;;;;;;5010923;28;20449;-74
2023/05/25 01:18:44;;;;;;;11.57;3.60;;;12.50;1.00;;;;;;5008898;28;20961;-75
2023/05/25 01:21:42;;;;;;;11.10;3.47;;;12.50;1.00;;;;;;5009737;28;20467;-75
2023/05/25 01:24:33;;;;;;;10.63;3.63;;;12.50;1.00;;;;;;5009568;28;20612;-74
2023/05/25 01:27:22;;;;;;;6.23;3.40;;;12.50;1.00;;;;;;5006090;28;20895;-75
2023/05/25 01:29:48;;;;;;;9.23;3.33;;;12.40;1.00;;;;;;5011320;28;20477;-75
2023/05/25 01:32:16;;;;;;;10.73;3.53;;;12.50;1.00;;;;;;5009905;28;20436;-74
2023/05/25 01:34:43;;;;;;;10.20;3.27;;;12.40;1.00;;;;;;5009368;28;20190;-74
2023/05/25 01:37:12;;;;;;;8.87;3.43;;;12.40;1.00;;;;;;5005135;28;20441;-74
2023/05/25 01:39:39;;;;;;;8.20;3.53;;;12.30;1.00;;;;;;5009459;28;21002;-74
2023/05/25 01:42:05;;;;;;;8.87;3.43;;;12.30;1.00;;;;;;5009718;28;20815;-74
2023/05/25 01:44:30;;;;;;;10.13;3.40;;;12.20;1.00;;;;;;5009603;28;20441;-74
2023/05/25 01:47:04;;;;;;;9.40;3.20;;;12.20;1.00;;;;;;5011082;28;20182;-74
2023/05/25 01:49:45;;;;;;;6.90;3.00;;;12.20;1.00;;;;;;5008803;28;20332;-75
2023/05/25 01:52:34;;;;;;;10.20;3.67;;;12.20;1.00;;;;;;5010609;28;20806;-74
2023/05/25 01:55:05;;;;;;;11.97;4.17;;;12.30;1.00;;;;;;5006623;28;20437;-74
2023/05/25 01:57:35;;;;;;;11.30;3.60;;;12.20;1.00;;;;;;5007689;28;20775;-74
2023/05/25 02:00:02;;;;;;;13.60;4.10;;;12.20;1.00;;;;;;5010933;28;20457;-76
2023/05/25 02:02:28;;;;;;;9.80;3.90;;;12.10;1.00;;;;;;5009082;28;20440;-74
2023/05/25 02:04:54;;;;;;;9.43;3.80;;;12.00;1.00;;;;;;5009402;28;20519;-75
2023/05/25 02:07:21;;;;;;;8.83;3.60;;;11.90;1.00;;;;;;5010159;28;20437;-74
2023/05/25 02:09:47;;;;;;;10.00;4.33;;;11.90;1.00;;;;;;5008230;28;20477;-74
2023/05/25 02:12:12;;;;;;;8.30;3.53;;;11.90;1.00;;;;;;5008137;28;20804;-74
2023/05/25 02:14:38;;;;;;;9.17;3.60;;;11.90;1.00;;;;;;5009456;28;20349;-74
2023/05/25 02:17:03;;;;;;;10.63;4.00;;;11.90;1.00;;;;;;5009948;28;20266;-74
2023/05/25 02:19:29;;;;;;;10.03;3.57;;;11.90;1.00;;;;;;5010390;28;20221;-74
2023/05/25 02:21:54;;;;;;;7.00;3.20;;;11.90;1.00;;;;;;5009641;28;20293;-75
2023/05/25 02:24:23;;;;;;;8.43;3.77;;;11.90;1.00;;;;;;5009619;28;20193;-74
2023/05/25 02:26:49;;;;;;;8.43;3.30;;;11.90;1.00;;;;;;5007974;28;20190;-74
2023/05/25 02:29:15;;;;;;;12.40;4.07;;;11.90;1.00;;;;;;5008934;28;20473;-73
2023/05/25 02:31:40;;;;;;;6.93;3.40;;;11.90;1.00;;;;;;5009499;28;20434;-74
2023/05/25 02:34:06;;;;;;;10.17;4.07;;;11.90;1.00;;;;;;5009490;28;20266;-74
2023/05/25 02:36:33;;;;;;;14.10;3.80;;;11.80;1.00;;;;;;5008880;28;20221;-75
2023/05/25 02:38:59;;;;;;;11.40;4.23;;;11.80;1.00;;;;;;5006775;28;20213;-74
2023/05/25 02:41:26;;;;;;;11.93;3.80;;;11.70;1.00;;;;;;5009967;28;20449;-74
2023/05/25 02:43:51;;;;;;;8.00;3.67;;;11.60;1.00;;;;;;5008087;28;20221;-74
2023/05/25 02:46:17;;;;;;;11.93;4.40;;;11.50;1.00;;;;;;5007698;28;20874;-74
2023/05/25 02:48:43;;;;;;;10.80;4.10;;;11.30;1.00;;;;;;5009281;28;20232;-74
2023/05/25 02:51:08;;;;;;;11.33;4.03;;;11.30;1.00;;;;;;5007616;28;20266;-74
2023/05/25 02:53:34;;;;;;;14.07;4.43;;;11.30;1.00;;;;;;5008378;28;20194;-74
2023/05/25 02:56:01;;;;;;;12.83;4.67;;;11.30;1.00;;;;;;5009751;28;20261;-75
2023/05/25 02:58:27;;;;;;;8.90;4.30;;;11.20;1.00;;;;;;5007195;28;20187;-74
2023/05/25 03:00:53;;;;;;;7.50;3.80;;;11.30;1.00;;;;;;5007041;28;20476;-74
2023/05/25 03:03:18;;;;;;;8.70;4.23;;;11.20;1.00;;;;;;5006502;28;20726;-74
2023/05/25 03:05:44;;;;;;;7.50;4.10;;;11.20;1.00;;;;;;5007175;28;20508;-72
2023/05/25 03:08:10;;;;;;;10.20;4.30;;;11.20;1.00;;;;;;5008087;28;20228;-73
2023/05/25 03:10:35;;;;;;;11.30;3.90;;;11.10;1.00;;;;;;5007978;28;20233;-75
2023/05/25 03:13:01;;;;;;;12.43;4.90;;;11.00;1.00;;;;;;5008448;28;20269;-73
2023/05/25 03:15:26;;;;;;;9.10;3.90;;;10.80;1.00;;;;;;5009233;28;20274;-75
2023/05/25 03:17:55;;;;;;;12.07;4.50;;;10.70;1.00;;;;;;5006531;28;20265;-74
2023/05/25 03:20:23;;;;;;;16.13;4.20;;;10.60;1.00;;;;;;5006852;28;20275;-72
2023/05/25 03:22:49;;;;;;;12.80;4.60;;;10.50;1.00;;;;;;5008023;28;20440;-72
2023/05/25 03:25:14;;;;;;;10.70;4.53;;;10.50;1.00;;;;;;5007441;28;20436;-74
2023/05/25 03:27:40;;;;;;;11.23;3.87;;;10.40;1.00;;;;;;5008151;28;20218;-72
2023/05/25 03:30:06;;;;;;;7.40;4.50;;;10.40;1.00;;;;;;5008489;28;20243;-73
2023/05/25 03:32:32;;;;;;;13.60;4.70;;;10.50;1.00;;;;;;5007488;28;20182;-72
2023/05/25 03:34:58;;;;;;;10.97;4.47;;;10.50;1.00;;;;;;5007898;28;20437;-73
2023/05/25 03:37:23;;;;;;;12.33;5.00;;;10.50;1.00;;;;;;5007769;28;20438;-72
2023/05/25 03:39:49;;;;;;;10.80;4.30;;;10.50;1.00;;;;;;5006809;28;20289;-73
2023/05/25 03:42:15;;;;;;;9.70;4.50;;;10.50;1.00;;;;;;5008008;28;20189;-73
2023/05/25 03:44:40;;;;;;;10.53;4.17;;;10.50;1.00;;;;;;5007721;28;20205;-75
2023/05/25 03:47:06;;;;;;;9.37;4.37;;;10.50;1.00;;;;;;5006402;28;20242;-73
2023/05/25 03:49:31;;;;;;;9.57;4.20;;;10.50;1.00;;;;;;5007443;28;20210;-76
2023/05/25 03:52:00;;;;;;;14.43;4.50;;;10.40;1.00;;;;;;5007387;28;20183;-73
2023/05/25 03:54:25;;;;;;;10.07;4.60;;;10.10;1.00;;;;;;5006685;28;20585;-73
2023/05/25 03:56:51;;;;;;;10.47;4.27;;;10.40;1.00;;;;;;5006829;28;23080;-74
2023/05/25 03:59:17;;;;;;;12.10;4.40;;;10.20;1.00;;;;;;5006181;28;20236;-74
2023/05/25 04:01:43;;;;;;;9.27;4.00;;;10.20;1.00;;;;;;5005720;28;20376;-73
2023/05/25 04:04:09;;;;;;;12.07;4.37;;;10.20;1.00;;;;;;5006509;28;20553;-73
2023/05/25 04:06:36;;;;;;;15.60;4.80;;;10.20;1.00;;;;;;5007060;28;20433;-73
2023/05/25 04:09:03;;;;;;;9.17;4.30;;;10.20;1.00;;;;;;5006293;28;20210;-73
2023/05/25 04:11:29;;;;;;;10.63;4.30;;;10.20;1.00;;;;;;5004985;28;20879;-74
2023/05/25 04:13:54;;;;;;;8.53;4.53;;;10.20;1.00;;;;;;5002194;28;20524;-73
2023/05/25 04:16:20;;;;;;;13.00;4.43;;;10.20;1.00;;;;;;5007857;28;20573;-72
2023/05/25 04:18:46;;;;;;;7.63;4.43;;;10.30;1.00;;;;;;5007616;28;20224;-73
2023/05/25 04:21:11;;;;;;;14.10;4.67;;;10.30;1.00;;;;;;5008381;28;20205;-74
2023/05/25 04:23:37;;;;;;;9.80;4.00;;;10.30;1.00;;;;;;5006699;28;20190;-73
2023/05/25 04:26:02;;;;;;;11.50;4.50;;;10.40;1.00;;;;;;5006768;28;20297;-72
2023/05/25 04:28:28;;;;;;;9.80;4.37;;;10.40;1.00;;;;;;5005565;28;20761;-73
2023/05/25 04:30:58;;;;;;;10.03;4.37;;;10.50;1.00;;;;;;5006154;28;20186;-73
2023/05/25 04:33:28;;;;;;;13.30;4.50;;;10.50;1.00;;;;;;5004861;28;20249;-73
2023/05/25 04:35:54;;;;;;;8.13;4.20;;;10.50;1.00;;;;;;5006968;28;20515;-72
2023/05/25 04:38:19;;;;;;;9.63;4.60;;;10.50;1.00;;;;;;5006218;28;20445;-73
2023/05/25 04:40:45;;;;;;;9.50;4.23;;;10.60;1.00;;;;;;5004847;28;20523;-73
2023/05/25 04:43:12;;;;;;;11.93;4.70;;;10.60;1.00;;;;;;5006679;28;20217;-73
2023/05/25 04:45:38;;;;;;;12.40;4.80;;;10.60;1.00;;;;;;5006465;28;20214;-73
2023/05/25 04:48:03;;;;;;;11.93;4.63;;;10.60;1.00;;;;;;5008849;28;20480;-73
2023/05/25 04:50:29;;;;;;;13.33;4.40;;;10.60;1.00;;;;;;5010488;28;20225;-73
2023/05/25 04:52:54;;;;;;;14.30;4.80;;;10.60;1.00;;;;;;5009038;28;20244;-74
2023/05/25 04:55:20;;;;;;;17.40;4.87;;;10.70;1.00;;;;;;5009978;28;20240;-73
2023/05/25 04:57:45;;;;;;;13.07;4.50;;;10.70;1.00;;;;;;5009172;28;20183;-73
2023/05/25 05:00:14;;;;;;;16.77;4.60;;;10.80;1.00;;;;;;5008032;28;20202;-74
2023/05/25 05:02:39;;;;;;;14.67;4.63;;;10.90;1.00;;;;;;5007848;28;20189;-75
2023/05/25 05:05:05;;;;;;;15.30;5.30;;;11.10;1.00;;;;;;5007941;28;20449;-73
2023/05/25 05:07:30;;;;;;;16.17;4.60;;;11.20;1.00;;;;;;5010984;28;20190;-73
2023/05/25 05:09:56;;;;;;;15.40;4.97;;;11.20;1.00;;;;;;5011731;28;20228;-73
2023/05/25 05:12:21;;;;;;;14.97;4.90;;;11.30;1.00;;;;;;5012432;28;20178;-75
2023/05/25 05:14:47;;;;;;;10.00;4.60;;;11.40;1.00;;;;;;5012231;28;20179;-73
2023/05/25 05:17:12;;;;;;;12.27;4.63;;;11.50;1.00;;;;;;5012561;28;20353;-73
2023/05/25 05:19:38;;;;;;;14.50;4.77;;;11.70;1.00;;;;;;5011772;28;20245;-74
2023/05/25 05:22:04;;;;;;;12.60;5.27;;;11.70;1.00;;;;;;5011165;28;20236;-73
2023/05/25 05:24:29;;;;;;;13.20;4.73;;;11.90;1.00;;;;;;5012984;28;20537;-73
2023/05/25 05:26:55;;;;;;;15.23;4.90;;;12.00;1.00;;;;;;5011120;28;20435;-72
2023/05/25 05:29:21;;;;;;;14.13;5.00;;;12.30;1.00;;;;;;5008170;28;20531;-76
2023/05/25 05:31:46;;;;;;;16.50;4.60;;;12.30;1.00;;;;;;5006166;28;20186;-73
2023/05/25 05:34:12;;;;;;;14.73;5.13;;;12.50;1.00;;;;;;5005711;28;20198;-73
2023/05/25 05:36:37;;;;;;;10.50;4.90;;;12.60;1.00;;;;;;5009729;28;20329;-77
2023/05/25 05:39:03;;;;;;;19.30;5.20;;;12.70;1.00;;;;;;5002787;28;20209;-73
2023/05/25 05:41:28;;;;;;;9.83;4.77;;;12.80;1.00;;;;;;5010511;28;20248;-73
2023/05/25 05:43:54;;;;;;;11.10;4.97;;;12.90;1.00;;;;;;5011483;28;20201;-72
2023/05/25 05:46:19;;;;;;;13.17;5.30;;;12.90;1.00;;;;;;5012546;28;20183;-75
2023/05/25 05:48:45;;;;;;;18.23;4.90;;;13.00;1.00;;;;;;5010026;28;20221;-73
2023/05/25 05:51:10;;;;;;;10.10;4.87;;;13.10;1.00;;;;;;5011707;28;20182;-74
2023/05/25 05:53:36;;;;;;;9.13;5.30;;;13.10;1.00;;;;;;5012096;28;20552;-73
2023/05/25 05:56:02;;;;;;;13.07;5.00;;;15.20;1.00;;;;;;5006010;28;20171;-75
2023/05/25 05:58:28;;;;;;;15.33;5.20;;;13.60;1.00;;;;;;5006749;28;20190;-74
2023/05/25 06:00:55;;;;;;;11.70;4.73;;;13.60;1.00;;;;;;5006753;28;20881;-74
2023/05/25 06:03:21;;;;;;;17.03;4.30;;;13.80;1.00;;;;;;5011210;28;20476;-73
2023/05/25 06:05:47;;;;;;;16.70;4.60;;;13.90;1.00;;;;;;5009204;28;20920;-73
2023/05/25 06:08:13;;;;;;;11.63;4.37;;;14.00;1.00;;;;;;5010311;28;20444;-73
2023/05/25 06:10:38;;;;;;;11.40;4.43;;;14.10;1.00;;;;;;5011459;28;20214;-75
2023/05/25 06:13:06;;;;;;;13.13;4.90;;;14.20;1.00;;;;;;5009679;28;20268;-72
2023/05/25 06:15:31;;;;;;;12.00;4.20;;;14.30;1.00;;;;;;5006491;28;20178;-74
2023/05/25 06:17:57;;;;;;;9.40;4.30;;;14.40;1.00;;;;;;5010376;28;20433;-73
2023/05/25 06:20:22;;;;;;;12.73;4.07;;;14.50;1.00;;;;;;5009636;28;20276;-73
2023/05/25 06:22:48;;;;;;;10.00;4.50;;;14.60;1.00;;;;;;5010617;28;20214;-75
2023/05/25 06:25:14;;;;;;;10.03;4.17;;;14.80;1.00;;;;;;5007816;28;20221;-74
2023/05/25 06:27:40;;;;;;;13.23;4.33;;;15.00;1.00;;;;;;5007412;28;20209;-73
2023/05/25 06:30:06;;;;;;;8.97;4.20;;;15.10;1.00;;;;;;5007394;28;21083;-73
2023/05/25 06:32:32;;;;;;;13.27;4.50;;;15.20;1.00;;;;;;5009432;28;20183;-75
2023/05/25 06:34:57;;;;;;;15.33;4.70;;;15.30;1.00;;;;;;5007503;28;20513;-72
2023/05/25 06:37:23;;;;;;;16.47;4.53;;;15.30;1.00;;;;;;5008893;28;20186;-72
2023/05/25 06:39:48;;;;;;;13.57;4.53;;;15.40;1.00;;;;;;5009754;28;20635;-72
2023/05/25 06:42:14;;;;;;;16.70;5.17;;;15.50;1.00;;;;;;5010702;28;20693;-74
2023/05/25 06:44:39;;;;;;;11.27;4.40;;;15.50;1.00;;;;;;5007018;28;20186;-71
2023/05/25 06:47:05;;;;;;;13.80;4.70;;;15.60;1.00;;;;;;5008322;28;20190;-72
2023/05/25 06:49:31;;;;;;;9.10;4.50;;;15.70;1.00;;;;;;5008577;28;20604;-72
2023/05/25 06:51:57;;;;;;;11.90;4.93;;;15.70;1.00;;;;;;5009394;28;20450;-74
2023/05/25 06:54:22;;;;;;;9.20;4.70;;;15.90;1.00;;;;;;5006502;28;20182;-73
2023/05/25 06:56:48;;;;;;;14.93;5.00;;;16.00;1.00;;;;;;5007891;28;20190;-72
2023/05/25 06:59:13;;;;;;;8.20;4.17;;;16.20;1.00;;;;;;5008490;28;20314;-73
2023/05/25 07:01:39;;;;;;;13.17;4.50;;;16.40;1.00;;;;;;5008439;28;20273;-73
2023/05/25 07:04:05;;;;;;;7.33;4.10;;;16.60;1.00;;;;;;5005986;28;20178;-76
2023/05/25 07:06:31;;;;;;;9.27;4.43;;;16.70;1.00;;;;;;5007971;28;20448;-72
2023/05/25 07:08:57;;;;;;;9.87;4.87;;;16.80;1.00;;;;;;5007727;28;20222;-74
2023/05/25 07:11:22;;;;;;;10.00;4.80;;;17.10;1.00;;;;;;5009181;28;20851;-72
2023/05/25 07:13:48;;;;;;;11.37;5.37;;;17.20;1.00;;;;;;5010120;28;20253;-72
2023/05/25 07:16:14;;;;;;;9.47;5.23;;;17.40;1.00;;;;;;5010259;28;20269;-72
2023/05/25 07:18:40;;;;;;;12.70;5.13;;;17.60;1.00;;;;;;5010003;28;20187;-76
2023/05/25 07:21:08;;;;;;;14.03;6.00;;;17.50;1.00;;;;;;5008677;28;20205;-74
2023/05/25 07:23:35;;;;;;;10.63;5.30;;;17.80;1.00;;;;;;5010017;28;20996;-72
2023/05/25 07:26:00;;;;;;;11.63;5.53;;;17.90;1.00;;;;;;5009482;28;20468;-72
2023/05/25 07:28:26;;;;;;;10.93;5.70;;;18.30;1.00;;;;;;5010335;28;20461;-72
2023/05/25 07:30:52;;;;;;;12.27;6.10;;;18.20;1.00;;;;;;5008071;28;20605;-73
2023/05/25 07:33:17;;;;;;;9.43;5.00;;;18.50;1.00;;;;;;5005634;28;20187;-74
2023/05/25 07:35:42;;;;;;;11.73;5.57;;;18.80;1.00;;;;;;5007873;28;20534;-72
2023/05/25 07:38:08;;;;;;;10.33;5.53;;;19.10;1.00;;;;;;5006895;28;20267;-73
2023/05/25 07:40:34;;;;;;;16.13;5.27;;;19.30;1.00;;;;;;5005699;28;20205;-73
2023/05/25 07:43:00;;;;;;;15.43;5.90;;;19.60;1.00;;;;;;5007022;28;20549;-74
2023/05/25 07:45:25;;;;;;;12.40;5.97;;;19.90;1.00;;;;;;5006016;28;20533;-73
2023/05/25 07:47:51;;;;;;;11.73;5.50;;;20.10;1.00;;;;;;5007510;28;20182;-75
2023/05/25 07:50:17;;;;;;;10.30;5.57;;;20.30;1.00;;;;;;5006341;28;20305;-75
2023/05/25 07:52:42;;;;;;;13.03;5.87;;;20.40;1.00;;;;;;5007835;28;20182;-77
2023/05/25 07:55:08;;;;;;;8.27;5.10;;;20.50;1.00;;;;;;5006846;28;20189;-74
2023/05/25 07:57:34;;;;;;;10.40;5.30;;;20.50;1.00;;;;;;5007012;28;20517;-73
2023/05/25 08:00:00;;;;;;;18.27;8.33;;;20.50;1.00;;;;;;5006761;28;20464;-84
2023/05/25 08:02:25;;;;;;;17.13;5.70;;;20.60;1.00;;;;;;5006712;28;20198;-75
2023/05/25 08:04:51;;;;;;;14.77;5.60;;;20.70;1.00;;;;;;5007379;28;20182;-74
2023/05/25 08:07:20;;;;;;;11.90;5.43;;;21.00;1.00;;;;;;5007778;28;20190;-73
2023/05/25 08:09:46;;;;;;;12.23;5.40;;;20.80;1.00;;;;;;5006114;28;20438;-73
2023/05/25 08:12:12;;;;;;;12.43;6.27;;;20.90;1.00;;;;;;5006537;28;20429;-73
2023/05/25 08:14:37;;;;;;;12.00;5.47;;;21.10;1.00;;;;;;5005741;28;20178;-73
2023/05/25 08:17:03;;;;;;;12.20;6.23;;;21.30;1.00;;;;;;5007319;28;20185;-73
2023/05/25 08:19:32;;;;;;;10.07;5.60;;;21.50;1.00;;;;;;5007814;28;20572;-73
2023/05/25 08:21:58;;;;;;;9.93;5.27;;;21.70;1.00;;;;;;5008714;28;20421;-73
2023/05/25 08:24:24;;;;;;;13.13;6.00;;;21.90;1.00;;;;;;5008981;28;20443;-74
2023/05/25 08:26:50;;;;;;;9.93;5.67;;;22.20;1.00;;;;;;5008740;28;20177;-74
2023/05/25 08:29:15;;;;;;;10.50;5.70;;;22.40;1.00;;;;;;5009023;28;20249;-80
2023/05/25 08:31:42;;;;;;;15.37;6.00;;;22.70;1.00;;;;;;5007479;28;20177;-73
2023/05/25 08:34:08;;;;;;;14.10;5.90;;;22.90;1.00;;;;;;5005210;28;20182;-74
2023/05/25 08:36:35;;;;;;;10.30;5.60;;;23.10;1.00;;;;;;5006786;28;20545;-74
2023/05/25 08:39:01;;;;;;;11.83;5.40;;;25.90;1.00;;;;;;5006776;28;20460;-73
2023/05/25 08:41:28;;;;;;;10.10;5.07;;;23.30;1.00;;;;;;5006933;28;20532;-73
2023/05/25 08:43:53;;;;;;;12.23;4.87;;;23.40;1.00;;;;;;5006349;28;20437;-75
2023/05/25 08:46:29;;;;;;;10.90;5.67;;;23.30;1.00;;;;;;5001762;28;20460;-74
2023/05/25 08:48:58;;;;;;;11.77;5.63;;;23.30;1.00;;;;;;5005562;28;20202;-74
2023/05/25 08:51:24;;;;;;;15.88;5.60;;;23.40;1.00;;;;;;5005452;28;20438;-72
2023/05/25 08:53:51;;;;;;;13.50;5.40;;;23.90;1.00;;;;;;5002872;28;20209;-70
2023/05/25 08:56:19;;;;;;;10.50;5.20;;;24.70;1.00;;;;;;5000625;28;20483;-73
2023/05/25 08:59:07;;;;;;;11.00;5.80;;;25.90;1.00;;;;;;5007126;28;21168;-72
2023/05/25 09:01:38;;;;;;;11.83;6.00;;;26.60;1.00;;;;;;5007035;28;20417;-75
2023/05/25 09:04:04;;;;;;;8.07;5.20;;;27.20;1.00;;;;;;5007328;28;20418;-74
2023/05/25 09:06:29;;;;;;;10.83;5.27;;;27.90;1.00;;;;;;5002484;28;20232;-75
2023/05/25 09:08:55;;;;;;;12.23;5.30;;;28.70;1.00;;;;;;5005645;28;20228;-76
2023/05/25 09:11:21;;;;;;;9.45;5.00;;;28.90;1.00;;;;;;5009257;28;20189;-76
2023/05/25 09:13:47;;;;;;;10.60;4.93;;;29.30;1.00;;;;;;5006645;28;20186;-75
2023/05/25 09:16:13;;;;;;;10.25;5.63;;;29.70;1.00;;;;;;5003299;28;20240;-74
2023/05/25 09:18:39;;;;;;;12.40;5.40;;;30.60;1.00;;;;;;5007375;28;20189;-76
2023/05/25 09:21:04;;;;;;;10.32;5.80;;;30.60;1.00;;;;;;5007279;28;20186;-75
2023/05/25 09:23:30;;;;;;;12.02;5.65;;;31.30;1.00;;;;;;5008467;28;20182;-75
2023/05/25 09:25:57;;;;;;;10.50;5.38;;;31.20;1.00;;;;;;5008657;28;20205;-75
2023/05/25 09:28:22;;;;;;;9.55;5.00;;;31.50;1.00;;;;;;5009285;28;20178;-75
2023/05/25 09:30:48;;;;;;;11.95;5.32;;;32.10;1.00;;;;;;5006643;28;20218;-74
2023/05/25 09:33:17;;;;;;;8.30;4.80;;;32.30;1.00;;;;;;5006294;28;20178;-75
2023/05/25 09:35:45;;;;;;;13.52;5.32;;;32.70;1.00;;;;;;5009733;28;20563;-75
2023/05/25 09:38:14;;;;;;;8.05;4.80;;;33.00;1.00;;;;;;5010382;28;20182;-75
2023/05/25 09:40:40;;;;;;;8.35;4.78;;;32.90;1.00;;;;;;5010681;28;20236;-74
2023/05/25 09:43:07;;;;;;;8.57;4.80;;;33.40;1.00;;;;;;5010629;28;20296;-75
2023/05/25 09:45:34;;;;;;;7.95;5.03;;;34.40;1.00;;;;;;5006014;28;20301;-75
2023/05/25 09:48:00;;;;;;;9.18;4.97;;;34.40;1.00;;;;;;5002018;28;20199;-75
2023/05/25 09:50:29;;;;;;;9.18;5.10;;;34.30;1.00;;;;;;5011287;28;20240;-75
2023/05/25 09:52:58;;;;;;;14.80;5.50;;;34.40;1.00;;;;;;5011337;28;20190;-77
2023/05/25 09:55:28;;;;;;;9.60;4.65;;;34.10;1.00;;;;;;5012533;28;20236;-75
2023/05/25 09:57:55;;;;;;;7.85;5.00;;;34.30;1.00;;;;;;5006725;28;20229;-75
2023/05/25 10:00:22;;;;;;;6.85;4.25;;;34.70;1.00;;;;;;5010400;28;20206;-76
2023/05/25 10:02:47;;;;;;;8.75;4.50;;;35.10;1.00;;;;;;5012142;28;20244;-76
2023/05/25 10:05:13;;;;;;;9.70;4.90;;;34.80;1.00;;;;;;5012113;28;20201;-76
2023/05/25 10:07:39;;;;;;;9.50;5.18;;;35.40;1.00;;;;;;5008436;28;20194;-76
2023/05/25 10:10:06;;;;;;;8.40;4.43;;;35.50;1.00;;;;;;5009151;28;20304;-76
2023/05/25 10:12:32;;;;;;;7.70;5.05;;;35.10;1.00;;;;;;5011074;28;20198;-76
2023/05/25 10:15:01;;;;;;;8.07;4.68;;;35.10;1.00;;;;;;5011083;28;20192;-75
2023/05/25 10:17:30;;;;;;;7.32;4.70;;;35.60;1.00;;;;;;5010004;28;20182;-75
2023/05/25 10:19:59;;;;;;;8.38;4.88;;;35.80;1.00;;;;;;5011415;28;20288;-76
2023/05/25 10:22:38;;;;;;;9.50;4.97;;;36.00;1.00;;;;;;5011646;28;20724;-76
2023/05/25 10:25:34;;;;;;;7.55;4.70;;;36.40;1.00;;;;;;5010873;28;20190;-75
2023/05/25 10:28:28;;;;;;;8.48;4.80;;;36.60;1.00;;;;;;5010918;28;20221;-75
2023/05/25 10:30:55;;;;;;;8.93;4.95;;;36.70;1.00;;;;;;5010809;28;20213;-76
2023/05/25 10:33:21;;;;;;;7.95;4.47;;;37.10;1.00;;;;;;5008580;28;20256;-76
2023/05/25 10:35:49;;;;;;;7.95;5.00;;;37.30;1.00;;;;;;5009728;28;20173;-76
2023/05/25 10:38:15;;;;;;;10.27;5.05;;;37.20;1.00;;;;;;5002912;28;22077;-76
2023/05/25 10:40:46;;;;;;;8.35;4.72;;;37.40;1.00;;;;;;5010049;28;20232;-76
2023/05/25 10:43:13;;;;;;;9.30;5.20;;;37.00;1.00;;;;;;5010842;28;20628;-75
2023/05/25 10:45:40;;;;;;;12.95;4.80;;;36.70;1.00;;;;;;5009051;28;20557;-77
2023/05/25 10:48:06;;;;;;;9.82;5.47;;;36.50;1.00;;;;;;5006763;28;20217;-75
2023/05/25 10:50:34;;;;;;;7.30;4.40;;;37.10;1.00;;;;;;5009342;28;20213;-75
2023/05/25 10:53:20;;;;;;;10.43;4.97;;;37.50;1.00;;;;;;5008664;28;20185;-76
2023/05/25 10:55:52;;;;;;;6.63;4.78;;;37.50;1.00;;;;;;5007817;28;20194;-75
2023/05/25 10:58:21;;;;;;;10.30;5.05;;;37.50;1.00;;;;;;5008936;28;20228;-76
2023/05/25 11:01:06;;;;;;;10.55;4.95;;;37.90;1.00;;;;;;5006781;28;20212;-75
2023/05/25 11:03:46;;;;;;;11.98;5.38;;;37.60;1.00;;;;;;5004357;28;20178;-74
2023/05/25 11:06:14;;;;;;;8.75;4.82;;;37.70;1.00;;;;;;5005276;28;20182;-76
2023/05/25 11:08:56;;;;;;;8.70;5.00;;;38.00;1.00;;;;;;5007404;28;22233;-75
2023/05/25 11:11:42;;;;;;;7.93;4.32;;;38.20;1.00;;;;;;5006072;28;20273;-76
2023/05/25 11:14:21;;;;;;;7.82;4.60;;;38.40;1.00;;;;;;5007885;28;20182;-75
2023/05/25 11:17:13;;;;;;;8.48;4.90;;;38.20;1.00;;;;;;5006220;28;20272;-75
2023/05/25 11:19:43;;;;;;;7.20;4.10;;;38.30;1.00;;;;;;5004487;28;20229;-74
2023/05/25 11:22:20;;;;;;;8.75;4.75;;;37.50;1.00;;;;;;5007022;28;20186;-77
2023/05/25 11:24:50;;;;;;;9.82;4.40;;;35.50;1.00;;;;;;5006505;28;20205;-73
2023/05/25 11:27:22;;;;;;;10.05;4.97;;;35.40;1.00;;;;;;5007285;28;20200;-76
2023/05/25 11:29:52;;;;;;;12.95;5.05;;;35.90;1.00;;;;;;5004443;28;20723;-73
2023/05/25 11:32:18;;;;;;;7.68;4.68;;;36.60;1.00;;;;;;5005579;28;20190;-75
2023/05/25 11:34:46;;;;;;;12.05;4.53;;;37.20;1.00;;;;;;5007133;28;20272;-75
2023/05/25 11:37:15;;;;;;;7.85;4.47;;;36.60;1.00;;;;;;5006421;28;20189;-75
2023/05/25 11:39:42;;;;;;;9.18;4.63;;;36.20;1.00;;;;;;5005618;28;20202;-75
2023/05/25 11:42:10;;;;;;;9.15;4.97;;;36.80;1.00;;;;;;5008368;28;20186;-75
2023/05/25 11:44:36;;;;;;;12.70;4.20;;;36.70;1.00;;;;;;5005840;28;20178;-75
2023/05/25 11:47:28;;;;;;;7.78;4.28;;;35.80;1.00;;;;;;5006394;28;20190;-75
2023/05/25 11:49:55;;;;;;;8.07;4.85;;;36.10;1.00;;;;;;5007962;28;20241;-76
2023/05/25 11:52:21;;;;;;;8.32;4.65;;;36.50;1.00;;;;;;5006260;28;20331;-76
2023/05/25 11:54:47;;;;;;;8.77;4.30;;;36.60;1.00;;;;;;5009955;28;20185;-75
2023/05/25 11:57:23;;;;;;;8.43;4.50;;;36.80;1.00;;;;;;5005724;28;20181;-76
2023/05/25 11:59:59;;;;;;;7.45;4.40;;;36.90;1.00;;;;;;5007068;28;21651;-75
2023/05/25 12:02:25;;;;;;;7.68;4.43;;;37.10;1.00;;;;;;5006114;28;21957;-75
2023/05/25 12:05:02;;;;;;;7.63;4.25;;;37.90;1.00;;;;;;5008692;28;20220;-74
2023/05/25 12:07:29;;;;;;;8.90;4.80;;;38.80;1.00;;;;;;5006969;28;20267;-75
2023/05/25 12:10:08;;;;;;;14.75;4.57;;;38.70;1.00;;;;;;5007818;28;20692;-76
2023/05/25 12:12:37;;;;;;;9.30;4.40;;;38.10;1.00;;;;;;5008482;28;20551;-76
2023/05/25 12:15:03;;;;;;;6.40;4.30;;;38.30;1.00;;;;;;5008218;28;20205;-75
2023/05/25 12:17:29;;;;;;;8.18;4.30;;;38.30;1.00;;;;;;5009700;28;20717;-76
2023/05/25 12:19:55;;;;;;;7.68;4.28;;;38.10;1.00;;;;;;5009878;28;20201;-76
2023/05/25 12:22:21;;;;;;;7.38;4.32;;;38.40;1.00;;;;;;5009581;28;20190;-76
2023/05/25 12:24:48;;;;;;;8.95;4.53;;;38.90;1.00;;;;;;5009943;28;20188;-76
2023/05/25 12:27:18;;;;;;;7.47;4.22;;;38.90;1.00;;;;;;5009374;28;20559;-76
2023/05/25 12:29:47;;;;;;;7.85;4.60;;;38.70;1.00;;;;;;5009595;28;20691;-76
2023/05/25 12:32:13;;;;;;;12.10;4.60;;;38.60;1.00;;;;;;5009316;28;20194;-77
2023/05/25 12:34:39;;;;;;;7.13;4.07;;;38.60;1.00;;;;;;5010238;28;20277;-76
2023/05/25 12:37:04;;;;;;;7.50;4.38;;;38.80;1.00;;;;;;5009380;28;20272;-75
2023/05/25 12:39:30;;;;;;;8.25;4.50;;;38.90;1.00;;;;;;5009465;28;20240;-76
2023/05/25 12:42:03;;;;;;;8.45;5.00;;;38.80;1.00;;;;;;5009588;28;20201;-77
2023/05/25 12:44:34;;;;;;;9.05;4.38;;;38.70;1.00;;;;;;5001473;28;20186;-76
2023/05/25 12:47:13;;;;;;;10.13;4.40;;;38.40;1.00;;;;;;5008340;28;20248;-76
2023/05/25 12:49:41;;;;;;;6.97;4.35;;;38.00;1.00;;;;;;5010760;28;20209;-76
2023/05/25 12:52:07;;;;;;;6.63;4.05;;;38.20;1.00;;;;;;5005026;28;20178;-76
2023/05/25 12:54:44;;;;;;;6.70;4.22;;;38.80;1.00;;;;;;5009689;28;20190;-76